sensor_id;sensor_type;location;lat;lon;timestamp;temperature;humidity
2477;DHT22;1249;51.270;6.756;2023-06-14T00:01:46;25.60;60.10
2477;DHT22;1249;51.270;6.756;2023-06-14T00:04:12;25.60;60.20
2477;DHT22;1249;51.270;6.756;2023-06-14T00:06:38;25.50;60.20
2477;DHT22;1249;51.270;6.756;2023-06-14T00:09:04;25.60;60.50
2477;DHT22;1249;51.270;6.756;2023-06-14T00:11:31;25.50;60.50
2477;DHT22;1249;51.270;6.756;2023-06-14T00:13:57;25.50;60.70
2477;DHT22;1249;51.270;6.756;2023-06-14T00:16:23;25.50;60.70
2477;DHT22;1249;51.270;6.756;2023-06-14T00:18:48;25.50;60.80
2477;DHT22;1249;51.270;6.756;2023-06-14T00:21:14;25.40;60.80
2477;DHT22;1249;51.270;6.756;2023-06-14T00:23:40;25.40;60.90
2477;DHT22;1249;51.270;6.756;2023-06-14T00:26:06;25.40;61.10
2477;DHT22;1249;51.270;6.756;2023-06-14T00:28:31;25.40;61.30
2477;DHT22;1249;51.270;6.756;2023-06-14T00:30:57;25.40;61.30
2477;DHT22;1249;51.270;6.756;2023-06-14T00:33:22;25.30;61.30
2477;DHT22;1249;51.270;6.756;2023-06-14T00:35:48;25.30;61.50
2477;DHT22;1249;51.270;6.756;2023-06-14T00:38:14;25.30;61.60
2477;DHT22;1249;51.270;6.756;2023-06-14T00:40:39;25.30;61.70
2477;DHT22;1249;51.270;6.756;2023-06-14T00:43:05;25.30;61.80
2477;DHT22;1249;51.270;6.756;2023-06-14T00:45:31;25.20;61.80
2477;DHT22;1249;51.270;6.756;2023-06-14T00:48:01;25.20;61.90
2477;DHT22;1249;51.270;6.756;2023-06-14T00:50:28;25.10;61.90
2477;DHT22;1249;51.270;6.756;2023-06-14T00:52:55;25.20;62.10
2477;DHT22;1249;51.270;6.756;2023-06-14T00:55:21;25.10;62.20
2477;DHT22;1249;51.270;6.756;2023-06-14T00:57:47;25.10;62.20
2477;DHT22;1249;51.270;6.756;2023-06-14T01:00:13;25.10;62.30
2477;DHT22;1249;51.270;6.756;2023-06-14T01:02:40;25.00;62.50
2477;DHT22;1249;51.270;6.756;2023-06-14T01:05:06;24.90;62.40
2477;DHT22;1249;51.270;6.756;2023-06-14T01:08:02;24.90;62.70
2477;DHT22;1249;51.270;6.756;2023-06-14T01:13:19;24.90;62.90
2477;DHT22;1249;51.270;6.756;2023-06-14T01:15:47;24.90;63.00
2477;DHT22;1249;51.270;6.756;2023-06-14T01:18:12;24.80;63.00
2477;DHT22;1249;51.270;6.756;2023-06-14T01:20:47;24.80;63.00
2477;DHT22;1249;51.270;6.756;2023-06-14T01:23:18;24.80;63.20
2477;DHT22;1249;51.270;6.756;2023-06-14T01:25:50;24.80;63.80
2477;DHT22;1249;51.270;6.756;2023-06-14T01:28:19;24.80;63.40
2477;DHT22;1249;51.270;6.756;2023-06-14T01:30:48;24.80;63.40
2477;DHT22;1249;51.270;6.756;2023-06-14T01:33:26;24.70;63.60
2477;DHT22;1249;51.270;6.756;2023-06-14T01:35:53;24.70;63.60
2477;DHT22;1249;51.270;6.756;2023-06-14T01:38:22;24.70;63.70
2477;DHT22;1249;51.270;6.756;2023-06-14T01:40:48;24.70;63.80
2477;DHT22;1249;51.270;6.756;2023-06-14T01:43:16;24.60;64.50
2477;DHT22;1249;51.270;6.756;2023-06-14T01:45:45;24.60;63.90
2477;DHT22;1249;51.270;6.756;2023-06-14T01:48:11;24.60;63.90
2477;DHT22;1249;51.270;6.756;2023-06-14T01:50:37;24.60;64.20
2477;DHT22;1249;51.270;6.756;2023-06-14T01:53:07;24.60;64.40
2477;DHT22;1249;51.270;6.756;2023-06-14T01:55:33;24.60;64.40
2477;DHT22;1249;51.270;6.756;2023-06-14T01:58:03;24.50;64.30
2477;DHT22;1249;51.270;6.756;2023-06-14T02:00:29;24.50;64.40
2477;DHT22;1249;51.270;6.756;2023-06-14T02:02:54;24.50;64.40
2477;DHT22;1249;51.270;6.756;2023-06-14T02:05:21;24.50;64.60
2477;DHT22;1249;51.270;6.756;2023-06-14T02:07:46;24.50;64.60
2477;DHT22;1249;51.270;6.756;2023-06-14T02:10:19;24.50;64.60
2477;DHT22;1249;51.270;6.756;2023-06-14T02:12:44;24.50;64.70
2477;DHT22;1249;51.270;6.756;2023-06-14T02:15:16;24.40;64.70
2477;DHT22;1249;51.270;6.756;2023-06-14T02:17:44;24.40;64.70
2477;DHT22;1249;51.270;6.756;2023-06-14T02:20:10;24.40;64.90
2477;DHT22;1249;51.270;6.756;2023-06-14T02:22:36;24.30;64.80
2477;DHT22;1249;51.270;6.756;2023-06-14T02:25:01;24.30;64.90
2477;DHT22;1249;51.270;6.756;2023-06-14T02:27:27;24.30;65.00
2477;DHT22;1249;51.270;6.756;2023-06-14T02:29:52;24.30;65.10
2477;DHT22;1249;51.270;6.756;2023-06-14T02:32:18;24.30;65.10
2477;DHT22;1249;51.270;6.756;2023-06-14T02:34:44;24.30;65.20
2477;DHT22;1249;51.270;6.756;2023-06-14T02:37:09;24.30;65.20
2477;DHT22;1249;51.270;6.756;2023-06-14T02:39:36;24.30;65.40
2477;DHT22;1249;51.270;6.756;2023-06-14T02:42:02;24.20;65.40
2477;DHT22;1249;51.270;6.756;2023-06-14T02:44:27;24.20;65.50
2477;DHT22;1249;51.270;6.756;2023-06-14T02:46:54;24.20;65.60
2477;DHT22;1249;51.270;6.756;2023-06-14T02:49:21;24.20;65.50
2477;DHT22;1249;51.270;6.756;2023-06-14T02:51:47;24.10;65.70
2477;DHT22;1249;51.270;6.756;2023-06-14T02:54:12;24.10;65.70
2477;DHT22;1249;51.270;6.756;2023-06-14T02:56:39;24.10;65.80
2477;DHT22;1249;51.270;6.756;2023-06-14T02:59:07;24.10;65.90
2477;DHT22;1249;51.270;6.756;2023-06-14T03:01:34;24.00;65.90
2477;DHT22;1249;51.270;6.756;2023-06-14T03:04:01;24.00;66.10
2477;DHT22;1249;51.270;6.756;2023-06-14T03:06:28;24.00;66.10
2477;DHT22;1249;51.270;6.756;2023-06-14T03:08:55;24.00;66.10
2477;DHT22;1249;51.270;6.756;2023-06-14T03:11:22;24.00;66.20
2477;DHT22;1249;51.270;6.756;2023-06-14T03:13:48;24.00;66.30
2477;DHT22;1249;51.270;6.756;2023-06-14T03:16:13;24.00;66.30
2477;DHT22;1249;51.270;6.756;2023-06-14T03:18:39;24.00;66.40
2477;DHT22;1249;51.270;6.756;2023-06-14T03:21:04;24.00;66.50
2477;DHT22;1249;51.270;6.756;2023-06-14T03:23:32;24.00;66.50
2477;DHT22;1249;51.270;6.756;2023-06-14T03:25:57;24.00;66.50
2477;DHT22;1249;51.270;6.756;2023-06-14T03:28:23;24.00;66.50
2477;DHT22;1249;51.270;6.756;2023-06-14T03:30:49;24.00;66.60
2477;DHT22;1249;51.270;6.756;2023-06-14T03:33:15;23.90;66.60
2477;DHT22;1249;51.270;6.756;2023-06-14T03:35:40;23.90;66.60
2477;DHT22;1249;51.270;6.756;2023-06-14T03:38:06;23.90;66.70
2477;DHT22;1249;51.270;6.756;2023-06-14T03:40:35;23.90;66.70
2477;DHT22;1249;51.270;6.756;2023-06-14T03:43:01;23.90;66.70
2477;DHT22;1249;51.270;6.756;2023-06-14T03:45:26;23.80;66.70
2477;DHT22;1249;51.270;6.756;2023-06-14T03:47:52;23.80;66.80
2477;DHT22;1249;51.270;6.756;2023-06-14T03:50:18;23.80;66.80
2477;DHT22;1249;51.270;6.756;2023-06-14T03:52:44;23.80;66.90
2477;DHT22;1249;51.270;6.756;2023-06-14T03:55:13;23.80;66.90
2477;DHT22;1249;51.270;6.756;2023-06-14T03:57:39;23.80;66.90
2477;DHT22;1249;51.270;6.756;2023-06-14T04:00:05;23.80;67.00
2477;DHT22;1249;51.270;6.756;2023-06-14T04:02:31;23.80;67.10
2477;DHT22;1249;51.270;6.756;2023-06-14T04:04:57;23.70;67.00
2477;DHT22;1249;51.270;6.756;2023-06-14T04:07:23;23.80;67.20
2477;DHT22;1249;51.270;6.756;2023-06-14T04:09:48;23.70;67.20
2477;DHT22;1249;51.270;6.756;2023-06-14T04:12:14;23.70;67.10
2477;DHT22;1249;51.270;6.756;2023-06-14T04:14:40;23.70;67.40
2477;DHT22;1249;51.270;6.756;2023-06-14T04:17:06;23.70;67.30
2477;DHT22;1249;51.270;6.756;2023-06-14T04:19:31;23.70;67.40
2477;DHT22;1249;51.270;6.756;2023-06-14T04:21:58;23.70;67.50
2477;DHT22;1249;51.270;6.756;2023-06-14T04:24:26;23.60;67.50
2477;DHT22;1249;51.270;6.756;2023-06-14T04:26:58;23.60;67.50
2477;DHT22;1249;51.270;6.756;2023-06-14T04:29:24;23.60;67.70
2477;DHT22;1249;51.270;6.756;2023-06-14T04:31:53;23.60;67.70
2477;DHT22;1249;51.270;6.756;2023-06-14T04:34:20;23.70;67.70
2477;DHT22;1249;51.270;6.756;2023-06-14T04:36:47;23.70;67.70
2477;DHT22;1249;51.270;6.756;2023-06-14T04:39:18;23.70;67.70
2477;DHT22;1249;51.270;6.756;2023-06-14T04:41:44;23.70;67.70
2477;DHT22;1249;51.270;6.756;2023-06-14T04:44:10;23.70;67.60
2477;DHT22;1249;51.270;6.756;2023-06-14T04:46:38;23.70;67.70
2477;DHT22;1249;51.270;6.756;2023-06-14T04:49:17;23.70;67.60
2477;DHT22;1249;51.270;6.756;2023-06-14T04:51:44;23.70;67.60
2477;DHT22;1249;51.270;6.756;2023-06-14T04:54:10;23.70;67.50
2477;DHT22;1249;51.270;6.756;2023-06-14T04:56:39;23.70;67.70
2477;DHT22;1249;51.270;6.756;2023-06-14T04:59:05;23.70;67.60
2477;DHT22;1249;51.270;6.756;2023-06-14T05:01:31;23.80;67.50
2477;DHT22;1249;51.270;6.756;2023-06-14T05:03:59;23.80;67.20
2477;DHT22;1249;51.270;6.756;2023-06-14T05:06:25;23.40;61.00
2477;DHT22;1249;51.270;6.756;2023-06-14T05:08:53;23.10;60.00
2477;DHT22;1249;51.270;6.756;2023-06-14T05:11:18;22.80;58.90
2477;DHT22;1249;51.270;6.756;2023-06-14T05:13:44;22.50;59.60
2477;DHT22;1249;51.270;6.756;2023-06-14T05:16:13;22.40;59.20
2477;DHT22;1249;51.270;6.756;2023-06-14T05:18:41;22.50;60.10
2477;DHT22;1249;51.270;6.756;2023-06-14T05:21:06;22.40;60.90
2477;DHT22;1249;51.270;6.756;2023-06-14T05:23:32;22.50;61.70
2477;DHT22;1249;51.270;6.756;2023-06-14T05:25:58;22.60;61.30
2477;DHT22;1249;51.270;6.756;2023-06-14T05:28:24;22.70;60.80
2477;DHT22;1249;51.270;6.756;2023-06-14T05:30:50;22.60;60.10
2477;DHT22;1249;51.270;6.756;2023-06-14T05:33:16;22.70;60.00
2477;DHT22;1249;51.270;6.756;2023-06-14T05:35:42;22.90;60.20
2477;DHT22;1249;51.270;6.756;2023-06-14T05:38:07;22.90;60.10
2477;DHT22;1249;51.270;6.756;2023-06-14T05:40:33;22.90;60.00
2477;DHT22;1249;51.270;6.756;2023-06-14T05:42:59;23.00;60.00
2477;DHT22;1249;51.270;6.756;2023-06-14T05:45:25;23.20;59.90
2477;DHT22;1249;51.270;6.756;2023-06-14T05:47:50;23.20;59.70
2477;DHT22;1249;51.270;6.756;2023-06-14T05:50:16;23.30;60.30
2477;DHT22;1249;51.270;6.756;2023-06-14T05:52:42;23.40;60.40
2477;DHT22;1249;51.270;6.756;2023-06-14T05:55:08;23.60;61.20
2477;DHT22;1249;51.270;6.756;2023-06-14T05:57:34;23.70;60.50
2477;DHT22;1249;51.270;6.756;2023-06-14T05:59:59;23.80;60.30
2477;DHT22;1249;51.270;6.756;2023-06-14T06:02:25;23.90;60.00
2477;DHT22;1249;51.270;6.756;2023-06-14T06:04:50;23.90;60.00
2477;DHT22;1249;51.270;6.756;2023-06-14T06:07:16;24.10;59.30
2477;DHT22;1249;51.270;6.756;2023-06-14T06:09:41;24.30;59.20
2477;DHT22;1249;51.270;6.756;2023-06-14T06:12:07;24.30;58.40
2477;DHT22;1249;51.270;6.756;2023-06-14T06:14:33;24.50;57.70
2477;DHT22;1249;51.270;6.756;2023-06-14T06:16:58;24.80;57.20
2477;DHT22;1249;51.270;6.756;2023-06-14T06:19:24;25.20;56.40
2477;DHT22;1249;51.270;6.756;2023-06-14T06:21:50;25.50;55.60
2477;DHT22;1249;51.270;6.756;2023-06-14T06:24:16;26.00;54.80
2477;DHT22;1249;51.270;6.756;2023-06-14T06:26:41;26.30;54.30
2477;DHT22;1249;51.270;6.756;2023-06-14T06:29:07;26.70;53.70
2477;DHT22;1249;51.270;6.756;2023-06-14T06:31:32;27.00;53.00
2477;DHT22;1249;51.270;6.756;2023-06-14T06:33:58;27.40;52.60
2477;DHT22;1249;51.270;6.756;2023-06-14T06:36:24;27.70;51.80
2477;DHT22;1249;51.270;6.756;2023-06-14T06:38:50;28.00;51.00
2477;DHT22;1249;51.270;6.756;2023-06-14T06:41:15;28.30;50.40
2477;DHT22;1249;51.270;6.756;2023-06-14T06:43:41;28.70;49.70
2477;DHT22;1249;51.270;6.756;2023-06-14T06:46:07;29.00;49.50
2477;DHT22;1249;51.270;6.756;2023-06-14T06:48:32;29.30;49.20
2477;DHT22;1249;51.270;6.756;2023-06-14T06:50:58;29.60;48.60
2477;DHT22;1249;51.270;6.756;2023-06-14T06:53:23;29.90;48.40
2477;DHT22;1249;51.270;6.756;2023-06-14T06:55:49;30.10;47.80
2477;DHT22;1249;51.270;6.756;2023-06-14T06:58:15;30.30;47.60
2477;DHT22;1249;51.270;6.756;2023-06-14T07:00:40;30.50;46.80
2477;DHT22;1249;51.270;6.756;2023-06-14T07:03:06;30.60;46.40
2477;DHT22;1249;51.270;6.756;2023-06-14T07:05:32;30.80;46.60
2477;DHT22;1249;51.270;6.756;2023-06-14T07:07:57;31.00;46.30
2477;DHT22;1249;51.270;6.756;2023-06-14T07:10:23;31.20;45.30
2477;DHT22;1249;51.270;6.756;2023-06-14T07:12:50;31.40;45.30
2477;DHT22;1249;51.270;6.756;2023-06-14T07:15:15;31.60;44.70
2477;DHT22;1249;51.270;6.756;2023-06-14T07:17:41;31.80;43.90
2477;DHT22;1249;51.270;6.756;2023-06-14T07:20:08;32.10;43.30
2477;DHT22;1249;51.270;6.756;2023-06-14T07:22:39;32.40;42.70
2477;DHT22;1249;51.270;6.756;2023-06-14T07:25:06;32.70;42.80
2477;DHT22;1249;51.270;6.756;2023-06-14T07:27:33;32.80;42.40
2477;DHT22;1249;51.270;6.756;2023-06-14T07:29:59;32.90;41.70
2477;DHT22;1249;51.270;6.756;2023-06-14T07:32:24;33.00;42.60
2477;DHT22;1249;51.270;6.756;2023-06-14T07:34:50;33.00;42.00
2477;DHT22;1249;51.270;6.756;2023-06-14T07:37:15;33.10;42.70
2477;DHT22;1249;51.270;6.756;2023-06-14T07:39:41;33.20;43.00
2477;DHT22;1249;51.270;6.756;2023-06-14T07:42:07;33.30;42.90
2477;DHT22;1249;51.270;6.756;2023-06-14T07:44:32;33.50;42.90
2477;DHT22;1249;51.270;6.756;2023-06-14T07:46:58;33.60;42.80
2477;DHT22;1249;51.270;6.756;2023-06-14T07:49:25;33.70;42.30
2477;DHT22;1249;51.270;6.756;2023-06-14T07:51:51;33.90;42.00
2477;DHT22;1249;51.270;6.756;2023-06-14T07:54:16;34.10;41.70
2477;DHT22;1249;51.270;6.756;2023-06-14T07:56:42;34.20;41.40
2477;DHT22;1249;51.270;6.756;2023-06-14T07:59:08;34.30;41.30
2477;DHT22;1249;51.270;6.756;2023-06-14T08:01:34;34.40;41.00
2477;DHT22;1249;51.270;6.756;2023-06-14T08:04:00;34.70;40.30
2477;DHT22;1249;51.270;6.756;2023-06-14T08:06:26;34.80;40.00
2477;DHT22;1249;51.270;6.756;2023-06-14T08:08:52;35.00;39.50
2477;DHT22;1249;51.270;6.756;2023-06-14T08:11:18;35.10;39.20
2477;DHT22;1249;51.270;6.756;2023-06-14T08:13:43;35.30;38.90
2477;DHT22;1249;51.270;6.756;2023-06-14T08:16:09;35.40;38.30
2477;DHT22;1249;51.270;6.756;2023-06-14T08:18:36;35.50;38.30
2477;DHT22;1249;51.270;6.756;2023-06-14T08:21:01;35.70;38.20
2477;DHT22;1249;51.270;6.756;2023-06-14T08:23:28;35.80;38.00
2477;DHT22;1249;51.270;6.756;2023-06-14T08:25:53;35.90;37.50
2477;DHT22;1249;51.270;6.756;2023-06-14T08:28:19;36.00;37.70
2477;DHT22;1249;51.270;6.756;2023-06-14T08:30:45;36.20;37.60
2477;DHT22;1249;51.270;6.756;2023-06-14T08:33:11;36.30;37.00
2477;DHT22;1249;51.270;6.756;2023-06-14T08:35:36;36.40;37.20
2477;DHT22;1249;51.270;6.756;2023-06-14T08:38:03;36.50;37.20
2477;DHT22;1249;51.270;6.756;2023-06-14T08:40:30;36.60;37.20
2477;DHT22;1249;51.270;6.756;2023-06-14T08:42:57;36.70;37.00
2477;DHT22;1249;51.270;6.756;2023-06-14T08:45:24;36.80;36.80
2477;DHT22;1249;51.270;6.756;2023-06-14T08:47:53;36.90;36.80
2477;DHT22;1249;51.270;6.756;2023-06-14T08:50:26;37.00;36.50
2477;DHT22;1249;51.270;6.756;2023-06-14T08:52:57;37.20;36.20
2477;DHT22;1249;51.270;6.756;2023-06-14T08:55:27;37.30;36.00
2477;DHT22;1249;51.270;6.756;2023-06-14T08:57:57;37.30;36.10
2477;DHT22;1249;51.270;6.756;2023-06-14T09:00:24;37.40;36.30
2477;DHT22;1249;51.270;6.756;2023-06-14T09:02:51;37.50;36.20
2477;DHT22;1249;51.270;6.756;2023-06-14T09:05:22;37.60;36.00
2477;DHT22;1249;51.270;6.756;2023-06-14T09:07:48;37.70;36.00
2477;DHT22;1249;51.270;6.756;2023-06-14T09:10:16;37.80;36.00
2477;DHT22;1249;51.270;6.756;2023-06-14T09:12:41;38.00;35.70
2477;DHT22;1249;51.270;6.756;2023-06-14T09:15:10;38.20;35.40
2477;DHT22;1249;51.270;6.756;2023-06-14T09:17:37;38.50;34.60
2477;DHT22;1249;51.270;6.756;2023-06-14T09:20:03;38.70;34.30
2477;DHT22;1249;51.270;6.756;2023-06-14T09:22:32;38.70;34.60
2477;DHT22;1249;51.270;6.756;2023-06-14T09:24:58;38.70;34.80
2477;DHT22;1249;51.270;6.756;2023-06-14T09:27:25;38.70;34.60
2477;DHT22;1249;51.270;6.756;2023-06-14T09:29:52;38.70;34.70
2477;DHT22;1249;51.270;6.756;2023-06-14T09:32:17;38.90;34.30
2477;DHT22;1249;51.270;6.756;2023-06-14T09:34:43;39.10;34.10
2477;DHT22;1249;51.270;6.756;2023-06-14T09:37:09;39.30;33.70
2477;DHT22;1249;51.270;6.756;2023-06-14T09:39:35;39.30;33.90
2477;DHT22;1249;51.270;6.756;2023-06-14T09:42:00;39.40;34.00
2477;DHT22;1249;51.270;6.756;2023-06-14T09:44:26;39.50;33.50
2477;DHT22;1249;51.270;6.756;2023-06-14T09:46:56;39.60;33.60
2477;DHT22;1249;51.270;6.756;2023-06-14T09:49:21;39.80;33.40
2477;DHT22;1249;51.270;6.756;2023-06-14T09:51:51;40.00;33.10
2477;DHT22;1249;51.270;6.756;2023-06-14T09:54:22;40.10;32.70
2477;DHT22;1249;51.270;6.756;2023-06-14T09:56:48;40.10;32.60
2477;DHT22;1249;51.270;6.756;2023-06-14T09:59:19;40.30;32.20
2477;DHT22;1249;51.270;6.756;2023-06-14T10:01:47;40.40;32.10
2477;DHT22;1249;51.270;6.756;2023-06-14T10:04:13;40.60;32.10
2477;DHT22;1249;51.270;6.756;2023-06-14T10:06:43;40.70;32.00
2477;DHT22;1249;51.270;6.756;2023-06-14T10:09:11;41.00;32.00
2477;DHT22;1249;51.270;6.756;2023-06-14T10:11:37;41.10;31.90
2477;DHT22;1249;51.270;6.756;2023-06-14T10:14:09;41.30;31.80
2477;DHT22;1249;51.270;6.756;2023-06-14T10:19:46;41.70;30.80
2477;DHT22;1249;51.270;6.756;2023-06-14T10:22:26;41.90;30.00
2477;DHT22;1249;51.270;6.756;2023-06-14T10:24:54;42.00;30.70
2477;DHT22;1249;51.270;6.756;2023-06-14T10:27:21;42.10;31.00
2477;DHT22;1249;51.270;6.756;2023-06-14T10:32:18;42.40;31.00
2477;DHT22;1249;51.270;6.756;2023-06-14T10:37:27;42.50;30.00
2477;DHT22;1249;51.270;6.756;2023-06-14T10:39:53;42.70;29.80
2477;DHT22;1249;51.270;6.756;2023-06-14T10:42:19;42.90;30.10
2477;DHT22;1249;51.270;6.756;2023-06-14T10:44:51;43.10;30.80
2477;DHT22;1249;51.270;6.756;2023-06-14T10:47:24;43.10;30.00
2477;DHT22;1249;51.270;6.756;2023-06-14T10:49:55;43.30;29.80
2477;DHT22;1249;51.270;6.756;2023-06-14T10:52:27;43.60;29.40
2477;DHT22;1249;51.270;6.756;2023-06-14T10:55:02;43.80;29.90
2477;DHT22;1249;51.270;6.756;2023-06-14T10:57:32;43.80;29.30
2477;DHT22;1249;51.270;6.756;2023-06-14T11:00:00;44.00;29.30
2477;DHT22;1249;51.270;6.756;2023-06-14T11:03:10;44.20;29.60
2477;DHT22;1249;51.270;6.756;2023-06-14T11:11:00;44.40;29.60
2477;DHT22;1249;51.270;6.756;2023-06-14T11:13:26;44.40;28.70
2477;DHT22;1249;51.270;6.756;2023-06-14T11:15:51;44.60;28.80
2477;DHT22;1249;51.270;6.756;2023-06-14T11:18:22;44.70;28.70
2477;DHT22;1249;51.270;6.756;2023-06-14T11:20:50;44.80;27.90
2477;DHT22;1249;51.270;6.756;2023-06-14T11:23:16;44.90;27.90
2477;DHT22;1249;51.270;6.756;2023-06-14T11:25:41;45.00;28.10
2477;DHT22;1249;51.270;6.756;2023-06-14T11:28:07;45.00;27.70
2477;DHT22;1249;51.270;6.756;2023-06-14T11:30:33;45.20;27.90
2477;DHT22;1249;51.270;6.756;2023-06-14T11:32:58;45.30;27.90
2477;DHT22;1249;51.270;6.756;2023-06-14T11:35:25;45.40;27.50
2477;DHT22;1249;51.270;6.756;2023-06-14T11:37:55;45.60;27.60
2477;DHT22;1249;51.270;6.756;2023-06-14T11:40:24;45.80;27.60
2477;DHT22;1249;51.270;6.756;2023-06-14T11:42:54;46.00;27.60
2477;DHT22;1249;51.270;6.756;2023-06-14T11:45:22;46.10;27.10
2477;DHT22;1249;51.270;6.756;2023-06-14T11:47:48;46.20;27.30
2477;DHT22;1249;51.270;6.756;2023-06-14T11:50:14;46.40;27.40
2477;DHT22;1249;51.270;6.756;2023-06-14T11:52:39;46.60;27.50
2477;DHT22;1249;51.270;6.756;2023-06-14T11:55:06;46.70;27.40
2477;DHT22;1249;51.270;6.756;2023-06-14T11:57:35;46.90;27.50
2477;DHT22;1249;51.270;6.756;2023-06-14T12:00:04;47.10;27.30
2477;DHT22;1249;51.270;6.756;2023-06-14T12:02:40;47.20;27.60
2477;DHT22;1249;51.270;6.756;2023-06-14T12:05:07;47.50;27.50
2477;DHT22;1249;51.270;6.756;2023-06-14T12:07:38;47.70;27.90
2477;DHT22;1249;51.270;6.756;2023-06-14T12:10:08;47.70;27.70
2477;DHT22;1249;51.270;6.756;2023-06-14T12:12:38;47.90;27.80
2477;DHT22;1249;51.270;6.756;2023-06-14T12:15:05;48.00;27.60
2477;DHT22;1249;51.270;6.756;2023-06-14T12:17:33;48.00;27.30
2477;DHT22;1249;51.270;6.756;2023-06-14T12:20:08;48.00;27.50
2477;DHT22;1249;51.270;6.756;2023-06-14T12:22:46;48.10;27.50
2477;DHT22;1249;51.270;6.756;2023-06-14T12:25:26;48.20;27.70
2477;DHT22;1249;51.270;6.756;2023-06-14T12:27:55;48.20;26.60
2477;DHT22;1249;51.270;6.756;2023-06-14T12:30:21;48.20;26.50
2477;DHT22;1249;51.270;6.756;2023-06-14T12:32:47;48.30;26.70
2477;DHT22;1249;51.270;6.756;2023-06-14T12:35:13;48.40;26.90
2477;DHT22;1249;51.270;6.756;2023-06-14T12:37:39;48.50;27.00
2477;DHT22;1249;51.270;6.756;2023-06-14T12:40:05;48.60;27.20
2477;DHT22;1249;51.270;6.756;2023-06-14T12:42:32;48.70;27.50
2477;DHT22;1249;51.270;6.756;2023-06-14T12:44:59;48.70;27.60
2477;DHT22;1249;51.270;6.756;2023-06-14T12:47:25;48.80;27.10
2477;DHT22;1249;51.270;6.756;2023-06-14T12:49:50;48.90;27.40
2477;DHT22;1249;51.270;6.756;2023-06-14T12:52:16;49.00;26.70
2477;DHT22;1249;51.270;6.756;2023-06-14T12:54:42;49.00;27.00
2477;DHT22;1249;51.270;6.756;2023-06-14T12:57:07;49.10;27.10
2477;DHT22;1249;51.270;6.756;2023-06-14T12:59:33;49.20;27.20
2477;DHT22;1249;51.270;6.756;2023-06-14T13:02:16;49.20;27.00
2477;DHT22;1249;51.270;6.756;2023-06-14T13:04:42;49.40;27.00
2477;DHT22;1249;51.270;6.756;2023-06-14T13:07:08;49.40;27.10
2477;DHT22;1249;51.270;6.756;2023-06-14T13:09:36;49.40;27.20
2477;DHT22;1249;51.270;6.756;2023-06-14T13:12:01;49.30;26.90
2477;DHT22;1249;51.270;6.756;2023-06-14T13:14:27;49.30;26.80
2477;DHT22;1249;51.270;6.756;2023-06-14T13:16:52;49.40;26.70
2477;DHT22;1249;51.270;6.756;2023-06-14T13:19:18;49.40;26.40
2477;DHT22;1249;51.270;6.756;2023-06-14T13:21:43;49.50;27.00
2477;DHT22;1249;51.270;6.756;2023-06-14T13:24:09;49.50;26.60
2477;DHT22;1249;51.270;6.756;2023-06-14T13:26:35;49.50;26.80
2477;DHT22;1249;51.270;6.756;2023-06-14T13:29:00;49.60;26.40
2477;DHT22;1249;51.270;6.756;2023-06-14T13:31:26;49.50;26.40
2477;DHT22;1249;51.270;6.756;2023-06-14T13:33:52;49.50;26.80
2477;DHT22;1249;51.270;6.756;2023-06-14T13:36:17;49.40;26.90
2477;DHT22;1249;51.270;6.756;2023-06-14T13:38:43;49.40;26.40
2477;DHT22;1249;51.270;6.756;2023-06-14T13:41:08;49.40;26.60
2477;DHT22;1249;51.270;6.756;2023-06-14T13:43:34;49.40;26.30
2477;DHT22;1249;51.270;6.756;2023-06-14T13:46:00;49.40;26.40
2477;DHT22;1249;51.270;6.756;2023-06-14T13:48:26;49.40;26.50
2477;DHT22;1249;51.270;6.756;2023-06-14T13:50:51;49.40;26.70
2477;DHT22;1249;51.270;6.756;2023-06-14T13:53:17;49.40;26.40
2477;DHT22;1249;51.270;6.756;2023-06-14T13:55:43;49.40;26.50
2477;DHT22;1249;51.270;6.756;2023-06-14T13:58:08;49.40;26.70
2477;DHT22;1249;51.270;6.756;2023-06-14T14:00:34;49.40;26.90
2477;DHT22;1249;51.270;6.756;2023-06-14T14:03:02;49.30;26.10
2477;DHT22;1249;51.270;6.756;2023-06-14T14:05:28;49.30;26.80
2477;DHT22;1249;51.270;6.756;2023-06-14T14:07:56;49.20;26.90
2477;DHT22;1249;51.270;6.756;2023-06-14T14:10:23;49.00;26.80
2477;DHT22;1249;51.270;6.756;2023-06-14T14:12:49;48.90;26.80
2477;DHT22;1249;51.270;6.756;2023-06-14T14:15:14;48.80;26.40
2477;DHT22;1249;51.270;6.756;2023-06-14T14:17:40;48.60;26.40
2477;DHT22;1249;51.270;6.756;2023-06-14T14:20:07;48.60;26.90
2477;DHT22;1249;51.270;6.756;2023-06-14T14:22:32;48.50;27.00
2477;DHT22;1249;51.270;6.756;2023-06-14T14:24:58;48.40;27.10
2477;DHT22;1249;51.270;6.756;2023-06-14T14:27:23;48.30;27.60
2477;DHT22;1249;51.270;6.756;2023-06-14T14:29:49;48.40;27.00
2477;DHT22;1249;51.270;6.756;2023-06-14T14:32:15;48.20;27.00
2477;DHT22;1249;51.270;6.756;2023-06-14T14:34:41;48.20;26.50
2477;DHT22;1249;51.270;6.756;2023-06-14T14:37:06;48.20;26.90
2477;DHT22;1249;51.270;6.756;2023-06-14T14:39:32;48.20;27.00
2477;DHT22;1249;51.270;6.756;2023-06-14T14:41:58;48.20;27.10
2477;DHT22;1249;51.270;6.756;2023-06-14T14:44:28;48.00;27.10
2477;DHT22;1249;51.270;6.756;2023-06-14T14:46:54;47.80;27.40
2477;DHT22;1249;51.270;6.756;2023-06-14T14:49:20;47.60;27.40
2477;DHT22;1249;51.270;6.756;2023-06-14T14:51:45;47.30;27.20
2477;DHT22;1249;51.270;6.756;2023-06-14T14:54:11;47.20;27.30
2477;DHT22;1249;51.270;6.756;2023-06-14T14:56:37;47.20;27.50
2477;DHT22;1249;51.270;6.756;2023-06-14T14:59:03;47.10;27.60
2477;DHT22;1249;51.270;6.756;2023-06-14T15:01:29;47.00;28.20
2477;DHT22;1249;51.270;6.756;2023-06-14T15:03:54;46.90;27.50
2477;DHT22;1249;51.270;6.756;2023-06-14T15:06:20;46.80;27.80
2477;DHT22;1249;51.270;6.756;2023-06-14T15:08:46;46.70;27.90
2477;DHT22;1249;51.270;6.756;2023-06-14T15:11:11;46.60;27.20
2477;DHT22;1249;51.270;6.756;2023-06-14T15:13:37;46.60;27.90
2477;DHT22;1249;51.270;6.756;2023-06-14T15:16:02;46.50;27.80
2477;DHT22;1249;51.270;6.756;2023-06-14T15:18:28;46.30;28.20
2477;DHT22;1249;51.270;6.756;2023-06-14T15:20:53;46.10;27.40
2477;DHT22;1249;51.270;6.756;2023-06-14T15:23:19;45.80;27.60
2477;DHT22;1249;51.270;6.756;2023-06-14T15:25:46;45.70;27.90
2477;DHT22;1249;51.270;6.756;2023-06-14T15:28:14;45.60;28.60
2477;DHT22;1249;51.270;6.756;2023-06-14T15:30:40;45.40;28.60
2477;DHT22;1249;51.270;6.756;2023-06-14T15:33:06;45.20;28.70
2477;DHT22;1249;51.270;6.756;2023-06-14T15:35:31;45.10;28.80
2477;DHT22;1249;51.270;6.756;2023-06-14T15:37:57;44.90;28.80
2477;DHT22;1249;51.270;6.756;2023-06-14T15:40:23;44.90;28.90
2477;DHT22;1249;51.270;6.756;2023-06-14T15:42:48;44.70;28.70
2477;DHT22;1249;51.270;6.756;2023-06-14T15:45:14;44.60;28.80
2477;DHT22;1249;51.270;6.756;2023-06-14T15:47:41;44.40;29.10
2477;DHT22;1249;51.270;6.756;2023-06-14T15:50:07;44.30;29.20
2477;DHT22;1249;51.270;6.756;2023-06-14T15:52:33;44.10;29.50
2477;DHT22;1249;51.270;6.756;2023-06-14T15:54:59;44.00;29.50
2477;DHT22;1249;51.270;6.756;2023-06-14T15:57:24;43.80;29.80
2477;DHT22;1249;51.270;6.756;2023-06-14T15:59:51;43.60;29.60
2477;DHT22;1249;51.270;6.756;2023-06-14T16:02:16;43.40;29.70
2477;DHT22;1249;51.270;6.756;2023-06-14T16:04:42;43.20;29.50
2477;DHT22;1249;51.270;6.756;2023-06-14T16:07:08;43.10;29.80
2477;DHT22;1249;51.270;6.756;2023-06-14T16:09:33;42.90;30.00
2477;DHT22;1249;51.270;6.756;2023-06-14T16:11:59;42.80;29.90
2477;DHT22;1249;51.270;6.756;2023-06-14T16:14:25;42.60;29.60
2477;DHT22;1249;51.270;6.756;2023-06-14T16:16:51;42.50;30.00